Terminal Aerodrome Forecast
Issued by NWS

Home | Current Version | Previous Version | Text Only | Print | Product List | Glossary On
Versions: 1 2 3 4 5 6 7 8 9 10 11 12 13 14 15 16 17 18 19 20 21 22 23 24 25 26 27 28 29
000
FTUS41 KBUF 012300
TAFJHW
TAF
KJHW 012328Z 0200/0224 07004KT P6SM SKC
     FM020300 13006KT P6SM SCT035
     FM020600 17007KT 5SM BR SCT020
     FM020900 17007KT 3SM BR BKN020
     FM021100 17007KT 3SM BR BKN150
     FM021500 17007KT P6SM SCT250
      AMD LTD TO CLD VIS AND WIND=

USA.gov is the U.S. government's official web portal to all federal, state and local government web resources and services.